sensor_id;sensor_type;location;lat;lon;timestamp;pressure;altitude;pressure_sealevel;temperature;humidity
46614;BME280;32338;50.430;6.806;2023-04-10T00:02:10;65687.63;;;2.43;100.00
46614;BME280;32338;50.430;6.806;2023-04-10T00:04:37;65689.09;;;2.42;100.00
46614;BME280;32338;50.430;6.806;2023-04-10T00:07:04;65690.44;;;2.46;100.00
46614;BME280;32338;50.430;6.806;2023-04-10T00:09:30;65698.25;;;2.53;100.00
46614;BME280;32338;50.430;6.806;2023-04-10T00:11:58;65698.25;;;2.53;100.00
46614;BME280;32338;50.430;6.806;2023-04-10T00:14:25;65690.63;;;2.49;100.00
46614;BME280;32338;50.430;6.806;2023-04-10T00:16:52;65688.97;;;2.47;100.00
46614;BME280;32338;50.430;6.806;2023-04-10T00:19:19;65680.22;;;2.41;100.00
46614;BME280;32338;50.430;6.806;2023-04-10T00:21:46;65684.41;;;2.36;100.00
46614;BME280;32338;50.430;6.806;2023-04-10T00:24:12;65678.88;;;2.38;100.00
46614;BME280;32338;50.430;6.806;2023-04-10T00:26:39;65671.81;;;2.34;100.00
46614;BME280;32338;50.430;6.806;2023-04-10T00:29:05;65650.03;;;2.14;100.00
46614;BME280;32338;50.430;6.806;2023-04-10T00:31:32;65651.84;;;2.10;100.00
46614;BME280;32338;50.430;6.806;2023-04-10T00:34:00;65652.25;;;2.16;100.00
46614;BME280;32338;50.430;6.806;2023-04-10T00:36:27;65649.81;;;2.11;100.00
46614;BME280;32338;50.430;6.806;2023-04-10T00:38:53;65646.47;;;2.08;100.00
46614;BME280;32338;50.430;6.806;2023-04-10T00:41:20;65646.59;;;2.03;100.00
46614;BME280;32338;50.430;6.806;2023-04-10T00:43:48;65633.38;;;1.93;100.00
46614;BME280;32338;50.430;6.806;2023-04-10T00:46:15;65618.50;;;1.82;100.00
46614;BME280;32338;50.430;6.806;2023-04-10T00:48:41;65609.00;;;1.73;100.00
46614;BME280;32338;50.430;6.806;2023-04-10T00:51:10;65611.78;;;1.76;100.00
46614;BME280;32338;50.430;6.806;2023-04-10T00:53:37;65606.56;;;1.69;100.00
46614;BME280;32338;50.430;6.806;2023-04-10T00:56:05;65609.56;;;1.74;100.00
46614;BME280;32338;50.430;6.806;2023-04-10T00:58:32;65618.50;;;1.82;100.00
46614;BME280;32338;50.430;6.806;2023-04-10T01:00:58;65637.09;;;1.94;100.00
46614;BME280;32338;50.430;6.806;2023-04-10T01:03:26;65610.47;;;1.72;100.00
46614;BME280;32338;50.430;6.806;2023-04-10T01:06:07;65610.81;;;1.70;100.00
46614;BME280;32338;50.430;6.806;2023-04-10T01:08:46;65608.38;;;1.66;100.00
46614;BME280;32338;50.430;6.806;2023-04-10T01:11:21;65605.88;;;1.73;100.00
46614;BME280;32338;50.430;6.806;2023-04-10T01:13:55;65609.00;;;1.73;100.00
46614;BME280;32338;50.430;6.806;2023-04-10T01:16:29;65610.81;;;1.70;100.00
46614;BME280;32338;50.430;6.806;2023-04-10T01:19:01;65600.41;;;1.63;100.00
46614;BME280;32338;50.430;6.806;2023-04-10T01:21:33;65611.03;;;1.73;100.00
46614;BME280;32338;50.430;6.806;2023-04-10T01:24:12;65603.97;;;1.69;100.00
46614;BME280;32338;50.430;6.806;2023-04-10T01:26:51;65596.13;;;1.61;100.00
46614;BME280;32338;50.430;6.806;2023-04-10T01:29:22;65578.63;;;1.43;100.00
46614;BME280;32338;50.430;6.806;2023-04-10T01:31:53;65578.97;;;1.41;100.00
46614;BME280;32338;50.430;6.806;2023-04-10T01:34:27;65566.53;;;1.34;100.00
46614;BME280;32338;50.430;6.806;2023-04-10T01:37:00;65571.91;;;1.37;100.00
46614;BME280;32338;50.430;6.806;2023-04-10T01:39:28;65555.13;;;1.21;100.00
46614;BME280;32338;50.430;6.806;2023-04-10T01:41:57;65563.53;;;1.29;100.00
46614;BME280;32338;50.430;6.806;2023-04-10T01:44:28;65562.97;;;1.28;100.00
46614;BME280;32338;50.430;6.806;2023-04-10T01:46:56;65555.13;;;1.21;100.00
46614;BME280;32338;50.430;6.806;2023-04-10T01:49:24;65548.44;;;1.15;100.00
46614;BME280;32338;50.430;6.806;2023-04-10T01:51:52;65532.81;;;1.01;100.00
46614;BME280;32338;50.430;6.806;2023-04-10T01:54:23;65524.97;;;0.93;100.00
46614;BME280;32338;50.430;6.806;2023-04-10T01:56:50;65520.50;;;0.89;100.00
46614;BME280;32338;50.430;6.806;2023-04-10T01:59:16;65536.50;;;1.02;100.00
46614;BME280;32338;50.430;6.806;2023-04-10T02:01:44;65527.22;;;0.95;100.00
46614;BME280;32338;50.430;6.806;2023-04-10T02:04:11;65533.13;;;0.99;100.00
46614;BME280;32338;50.430;6.806;2023-04-10T02:06:43;65530.34;;;0.96;100.00
46614;BME280;32338;50.430;6.806;2023-04-10T02:09:18;65530.00;;;0.98;100.00
46614;BME280;32338;50.430;6.806;2023-04-10T02:11:51;65534.25;;;1.00;100.00
46614;BME280;32338;50.430;6.806;2023-04-10T02:14:20;65526.66;;;0.95;100.00
46614;BME280;32338;50.430;6.806;2023-04-10T02:16:51;65527.63;;;1.01;100.00
46614;BME280;32338;50.430;6.806;2023-04-10T02:19:19;65537.13;;;1.09;100.00
46614;BME280;32338;50.430;6.806;2023-04-10T02:21:48;65533.00;;;1.03;100.00
46614;BME280;32338;50.430;6.806;2023-04-10T02:24:15;65543.97;;;1.11;100.00
46614;BME280;32338;50.430;6.806;2023-04-10T02:26:46;65545.44;;;1.10;100.00
46614;BME280;32338;50.430;6.806;2023-04-10T02:29:13;65553.25;;;1.17;100.00
46614;BME280;32338;50.430;6.806;2023-04-10T02:31:39;65594.97;;;1.53;100.00
46614;BME280;32338;50.430;6.806;2023-04-10T02:34:08;65600.25;;;1.68;100.00
46614;BME280;32338;50.430;6.806;2023-04-10T02:36:35;65621.44;;;1.80;100.00
46614;BME280;32338;50.430;6.806;2023-04-10T02:39:02;65635.25;;;1.98;100.00
46614;BME280;32338;50.430;6.806;2023-04-10T02:41:28;65666.16;;;2.21;100.00
46614;BME280;32338;50.430;6.806;2023-04-10T02:43:55;65683.16;;;2.39;100.00
46614;BME280;32338;50.430;6.806;2023-04-10T02:46:22;65705.09;;;2.55;100.00
46614;BME280;32338;50.430;6.806;2023-04-10T02:48:48;65704.97;;;2.59;100.00
46614;BME280;32338;50.430;6.806;2023-04-10T02:51:16;65716.03;;;2.74;100.00
46614;BME280;32338;50.430;6.806;2023-04-10T02:53:43;65729.59;;;2.82;100.00
46614;BME280;32338;50.430;6.806;2023-04-10T02:56:10;65713.16;;;2.65;100.00
46614;BME280;32338;50.430;6.806;2023-04-10T02:58:36;65698.06;;;2.51;100.00
46614;BME280;32338;50.430;6.806;2023-04-10T03:01:05;65687.06;;;2.43;100.00
46614;BME280;32338;50.430;6.806;2023-04-10T03:03:32;65680.56;;;2.39;100.00
46614;BME280;32338;50.430;6.806;2023-04-10T03:05:58;65667.69;;;2.27;100.00
46614;BME280;32338;50.430;6.806;2023-04-10T03:08:26;65657.97;;;2.16;100.00
46614;BME280;32338;50.430;6.806;2023-04-10T03:10:54;65660.03;;;2.16;100.00
46614;BME280;32338;50.430;6.806;2023-04-10T03:13:21;65664.69;;;2.22;100.00
46614;BME280;32338;50.430;6.806;2023-04-10T03:15:48;65655.06;;;2.18;100.00
46614;BME280;32338;50.430;6.806;2023-04-10T03:18:15;65661.78;;;2.24;100.00
46614;BME280;32338;50.430;6.806;2023-04-10T03:20:41;65677.56;;;2.34;100.00
46614;BME280;32338;50.430;6.806;2023-04-10T03:23:08;65714.81;;;2.66;100.00
46614;BME280;32338;50.430;6.806;2023-04-10T03:25:36;65730.72;;;2.83;100.00
46614;BME280;32338;50.430;6.806;2023-04-10T03:28:02;65748.81;;;3.02;100.00
46614;BME280;32338;50.430;6.806;2023-04-10T03:30:29;65747.84;;;2.97;100.00
46614;BME280;32338;50.430;6.806;2023-04-10T03:32:56;65758.69;;;3.09;100.00
46614;BME280;32338;50.430;6.806;2023-04-10T03:35:22;65752.94;;;3.08;100.00
46614;BME280;32338;50.430;6.806;2023-04-10T03:37:49;65753.28;;;3.06;100.00
46614;BME280;32338;50.430;6.806;2023-04-10T03:40:15;65759.81;;;3.10;100.00
46614;BME280;32338;50.430;6.806;2023-04-10T03:42:43;65785.91;;;3.32;100.00
46614;BME280;32338;50.430;6.806;2023-04-10T03:45:11;65777.38;;;3.29;100.00
46614;BME280;32338;50.430;6.806;2023-04-10T03:47:38;65778.84;;;3.28;100.00
46614;BME280;32338;50.430;6.806;2023-04-10T03:50:05;65795.63;;;3.43;100.00
46614;BME280;32338;50.430;6.806;2023-04-10T03:52:31;65803.25;;;3.48;100.00
46614;BME280;32338;50.430;6.806;2023-04-10T03:54:58;65792.81;;;3.40;100.00
46614;BME280;32338;50.430;6.806;2023-04-10T03:57:25;65793.94;;;3.41;100.00
46614;BME280;32338;50.430;6.806;2023-04-10T03:59:52;65800.88;;;3.50;100.00
46614;BME280;32338;50.430;6.806;2023-04-10T04:02:19;65808.72;;;3.57;100.00
46614;BME280;32338;50.430;6.806;2023-04-10T04:04:46;65824.75;;;3.70;100.00
46614;BME280;32338;50.430;6.806;2023-04-10T04:07:13;65811.88;;;3.58;100.00
46614;BME280;32338;50.430;6.806;2023-04-10T04:09:39;65820.47;;;3.68;100.00
46614;BME280;32338;50.430;6.806;2023-04-10T04:12:06;65840.06;;;3.86;100.00
46614;BME280;32338;50.430;6.806;2023-04-10T04:14:33;65830.91;;;3.76;100.00
46614;BME280;32338;50.430;6.806;2023-04-10T04:17:01;65840.22;;;3.82;100.00
46614;BME280;32338;50.430;6.806;2023-04-10T04:19:27;65833.72;;;3.78;100.00
46614;BME280;32338;50.430;6.806;2023-04-10T04:21:54;65824.41;;;3.72;100.00
46614;BME280;32338;50.430;6.806;2023-04-10T04:24:22;65823.06;;;3.68;100.00
46614;BME280;32338;50.430;6.806;2023-04-10T04:26:48;65823.06;;;3.68;100.00
46614;BME280;32338;50.430;6.806;2023-04-10T04:29:15;65823.75;;;3.64;100.00
46614;BME280;32338;50.430;6.806;2023-04-10T04:31:41;65814.47;;;3.58;100.00
46614;BME280;32338;50.430;6.806;2023-04-10T04:34:09;65815.56;;;3.59;100.00
46614;BME280;32338;50.430;6.806;2023-04-10T04:36:36;65828.09;;;3.73;100.00
46614;BME280;32338;50.430;6.806;2023-04-10T04:39:02;65823.63;;;3.69;100.00
46614;BME280;32338;50.430;6.806;2023-04-10T04:41:29;65827.19;;;3.75;100.00
46614;BME280;32338;50.430;6.806;2023-04-10T04:43:56;65827.34;;;3.70;100.00
46614;BME280;32338;50.430;6.806;2023-04-10T04:46:23;65817.09;;;3.65;100.00
46614;BME280;32338;50.430;6.806;2023-04-10T04:48:49;65812.63;;;3.61;100.00
46614;BME280;32338;50.430;6.806;2023-04-10T04:51:17;65816.91;;;3.63;100.00
46614;BME280;32338;50.430;6.806;2023-04-10T04:53:44;65809.06;;;3.55;100.00
46614;BME280;32338;50.430;6.806;2023-04-10T04:56:11;65804.25;;;3.53;100.00
46614;BME280;32338;50.430;6.806;2023-04-10T04:58:37;65797.72;;;3.50;100.00
46614;BME280;32338;50.430;6.806;2023-04-10T05:01:04;65814.69;;;3.61;100.00
46614;BME280;32338;50.430;6.806;2023-04-10T05:03:31;65815.78;;;3.62;100.00
46614;BME280;32338;50.430;6.806;2023-04-10T05:05:57;65815.22;;;3.61;100.00
46614;BME280;32338;50.430;6.806;2023-04-10T05:08:25;65808.50;;;3.55;100.00
46614;BME280;32338;50.430;6.806;2023-04-10T05:10:52;65803.13;;;3.52;100.00
46614;BME280;32338;50.430;6.806;2023-04-10T05:13:19;65811.88;;;3.58;100.00
46614;BME280;32338;50.430;6.806;2023-04-10T05:15:45;65817.06;;;3.58;100.00
46614;BME280;32338;50.430;6.806;2023-04-10T05:18:12;65808.84;;;3.53;100.00
46614;BME280;32338;50.430;6.806;2023-04-10T05:20:38;65799.97;;;3.52;100.00
46614;BME280;32338;50.430;6.806;2023-04-10T05:23:05;65814.47;;;3.58;100.00
46614;BME280;32338;50.430;6.806;2023-04-10T05:25:34;65822.09;;;3.63;100.00
46614;BME280;32338;50.430;6.806;2023-04-10T05:28:00;65813.91;;;3.57;100.00
46614;BME280;32338;50.430;6.806;2023-04-10T05:30:27;65807.03;;;3.56;100.00
46614;BME280;32338;50.430;6.806;2023-04-10T05:32:53;65812.97;;;3.59;100.00
46614;BME280;32338;50.430;6.806;2023-04-10T05:35:20;65809.84;;;3.59;100.00
46614;BME280;32338;50.430;6.806;2023-04-10T05:37:46;65833.84;;;3.73;100.00
46614;BME280;32338;50.430;6.806;2023-04-10T05:40:13;65829.78;;;3.75;100.00
46614;BME280;32338;50.430;6.806;2023-04-10T05:42:41;65830.69;;;3.73;100.00
46614;BME280;32338;50.430;6.806;2023-04-10T05:45:08;65827.00;;;3.72;100.00
46614;BME280;32338;50.430;6.806;2023-04-10T05:47:35;65831.81;;;3.74;100.00
46614;BME280;32338;50.430;6.806;2023-04-10T05:50:02;65831.13;;;3.78;100.00
46614;BME280;32338;50.430;6.806;2023-04-10T05:52:28;65842.66;;;3.86;100.00
46614;BME280;32338;50.430;6.806;2023-04-10T05:54:55;65849.38;;;3.93;100.00
46614;BME280;32338;50.430;6.806;2023-04-10T05:57:22;65854.63;;;4.00;100.00
46614;BME280;32338;50.430;6.806;2023-04-10T05:59:50;65872.34;;;4.14;100.00
46614;BME280;32338;50.430;6.806;2023-04-10T06:02:17;65864.91;;;4.12;100.00
46614;BME280;32338;50.430;6.806;2023-04-10T06:04:44;65882.22;;;4.20;100.00
46614;BME280;32338;50.430;6.806;2023-04-10T06:07:11;65879.28;;;4.22;100.00
46614;BME280;32338;50.430;6.806;2023-04-10T06:09:37;65885.66;;;4.31;100.00
46614;BME280;32338;50.430;6.806;2023-04-10T06:12:04;65895.31;;;4.35;100.00
46614;BME280;32338;50.430;6.806;2023-04-10T06:14:30;65890.69;;;4.35;100.00
46614;BME280;32338;50.430;6.806;2023-04-10T06:16:58;65900.78;;;4.45;100.00
46614;BME280;32338;50.430;6.806;2023-04-10T06:19:25;65903.94;;;4.45;100.00
46614;BME280;32338;50.430;6.806;2023-04-10T06:21:52;65923.34;;;4.61;100.00
46614;BME280;32338;50.430;6.806;2023-04-10T06:24:19;65931.19;;;4.68;100.00
46614;BME280;32338;50.430;6.806;2023-04-10T06:26:46;65945.00;;;4.78;100.00
46614;BME280;32338;50.430;6.806;2023-04-10T06:29:12;65953.63;;;4.89;100.00
46614;BME280;32338;50.430;6.806;2023-04-10T06:31:39;65965.75;;;4.97;100.00
46614;BME280;32338;50.430;6.806;2023-04-10T06:34:07;65978.50;;;5.14;100.00
46614;BME280;32338;50.430;6.806;2023-04-10T06:36:33;65989.50;;;5.22;100.00
46614;BME280;32338;50.430;6.806;2023-04-10T06:39:00;66000.72;;;5.32;100.00
46614;BME280;32338;50.430;6.806;2023-04-10T06:41:27;66013.28;;;5.46;100.00
46614;BME280;32338;50.430;6.806;2023-04-10T06:43:53;66028.00;;;5.55;100.00
46614;BME280;32338;50.430;6.806;2023-04-10T06:46:20;66029.31;;;5.58;100.00
46614;BME280;32338;50.430;6.806;2023-04-10T06:48:46;66043.34;;;5.71;100.00
46614;BME280;32338;50.430;6.806;2023-04-10T06:51:14;66053.09;;;5.82;100.00
46614;BME280;32338;50.430;6.806;2023-04-10T06:53:41;66064.88;;;5.93;100.00
46614;BME280;32338;50.430;6.806;2023-04-10T06:56:08;66065.78;;;5.92;100.00
46614;BME280;32338;50.430;6.806;2023-04-10T06:58:35;66074.63;;;6.05;100.00
46614;BME280;32338;50.430;6.806;2023-04-10T07:01:01;66094.09;;;6.20;100.00
46614;BME280;32338;50.430;6.806;2023-04-10T07:03:28;66115.19;;;6.37;100.00
46614;BME280;32338;50.430;6.806;2023-04-10T07:05:55;66137.09;;;6.57;100.00
46614;BME280;32338;50.430;6.806;2023-04-10T07:08:23;66146.84;;;6.69;100.00
46614;BME280;32338;50.430;6.806;2023-04-10T07:10:50;66157.50;;;6.78;100.00
46614;BME280;32338;50.430;6.806;2023-04-10T07:13:16;66159.03;;;6.85;100.00
46614;BME280;32338;50.430;6.806;2023-04-10T07:15:43;66175.13;;;6.97;100.00
46614;BME280;32338;50.430;6.806;2023-04-10T07:18:09;66191.78;;;7.10;100.00
46614;BME280;32338;50.430;6.806;2023-04-10T07:20:36;66186.72;;;7.05;100.00
46614;BME280;32338;50.430;6.806;2023-04-10T07:23:02;66202.03;;;7.14;100.00
46614;BME280;32338;50.430;6.806;2023-04-10T07:25:30;66194.03;;;7.12;100.00
46614;BME280;32338;50.430;6.806;2023-04-10T07:27:57;66198.31;;;7.13;100.00
46614;BME280;32338;50.430;6.806;2023-04-10T07:30:24;66197.00;;;7.10;100.00
46614;BME280;32338;50.430;6.806;2023-04-10T07:32:50;66204.13;;;7.21;100.00
46614;BME280;32338;50.430;6.806;2023-04-10T07:35:17;66221.97;;;7.42;100.00
46614;BME280;32338;50.430;6.806;2023-04-10T07:37:44;66223.78;;;7.39;100.00
46614;BME280;32338;50.430;6.806;2023-04-10T07:40:15;66239.91;;;7.52;100.00
46614;BME280;32338;50.430;6.806;2023-04-10T07:42:43;66264.25;;;7.76;100.00
46614;BME280;32338;50.430;6.806;2023-04-10T07:45:10;66270.44;;;7.82;100.00
46614;BME280;32338;50.430;6.806;2023-04-10T07:47:37;66283.38;;;7.94;100.00
46614;BME280;32338;50.430;6.806;2023-04-10T07:50:05;66301.16;;;8.08;100.00
46614;BME280;32338;50.430;6.806;2023-04-10T07:52:32;66314.28;;;8.22;100.00
46614;BME280;32338;50.430;6.806;2023-04-10T07:55:00;66315.41;;;8.23;100.00
46614;BME280;32338;50.430;6.806;2023-04-10T07:57:27;66333.78;;;8.38;100.00
46614;BME280;32338;50.430;6.806;2023-04-10T07:59:56;66337.34;;;8.43;100.00
46614;BME280;32338;50.430;6.806;2023-04-10T08:02:23;66350.47;;;8.51;100.00
46614;BME280;32338;50.430;6.806;2023-04-10T08:04:49;66352.91;;;8.55;100.00
46614;BME280;32338;50.430;6.806;2023-04-10T08:07:17;66359.28;;;8.64;100.00
46614;BME280;32338;50.430;6.806;2023-04-10T08:09:44;66362.47;;;8.64;100.00
46614;BME280;32338;50.430;6.806;2023-04-10T08:12:10;66364.00;;;8.70;96.42
46614;BME280;32338;50.430;6.806;2023-04-10T08:14:37;66371.88;;;8.77;93.36
46614;BME280;32338;50.430;6.806;2023-04-10T08:17:05;66377.88;;;8.81;92.38
46614;BME280;32338;50.430;6.806;2023-04-10T08:19:38;66381.59;;;8.82;88.57
46614;BME280;32338;50.430;6.806;2023-04-10T08:22:05;66385.75;;;8.88;89.36
46614;BME280;32338;50.430;6.806;2023-04-10T08:24:31;66394.75;;;8.96;86.90
46614;BME280;32338;50.430;6.806;2023-04-10T08:26:58;66403.19;;;9.04;84.04
46614;BME280;32338;50.430;6.806;2023-04-10T08:29:24;66425.50;;;9.22;87.53
46614;BME280;32338;50.430;6.806;2023-04-10T08:31:51;66434.50;;;9.30;82.97
46614;BME280;32338;50.430;6.806;2023-04-10T08:34:20;66458.69;;;9.52;83.94
46614;BME280;32338;50.430;6.806;2023-04-10T08:36:48;66454.97;;;9.51;81.17
46614;BME280;32338;50.430;6.806;2023-04-10T08:39:15;66472.78;;;9.65;83.92
46614;BME280;32338;50.430;6.806;2023-04-10T08:41:41;66477.31;;;9.77;82.93
46614;BME280;32338;50.430;6.806;2023-04-10T08:44:08;66481.03;;;9.78;81.40
46614;BME280;32338;50.430;6.806;2023-04-10T08:46:35;66481.63;;;9.78;82.73
46614;BME280;32338;50.430;6.806;2023-04-10T08:49:03;66495.50;;;9.88;78.40
46614;BME280;32338;50.430;6.806;2023-04-10T08:51:35;66510.69;;;10.02;81.48
46614;BME280;32338;50.430;6.806;2023-04-10T08:54:06;66530.97;;;10.21;84.11
46614;BME280;32338;50.430;6.806;2023-04-10T08:56:34;66549.22;;;10.40;79.75
46614;BME280;32338;50.430;6.806;2023-04-10T08:59:01;66569.66;;;10.54;78.05
46614;BME280;32338;50.430;6.806;2023-04-10T09:01:28;66571.00;;;10.58;74.29
46614;BME280;32338;50.430;6.806;2023-04-10T09:03:55;66553.53;;;10.42;69.75
46614;BME280;32338;50.430;6.806;2023-04-10T09:06:21;66555.78;;;10.44;71.75
46614;BME280;32338;50.430;6.806;2023-04-10T09:08:49;66560.28;;;10.48;74.47
46614;BME280;32338;50.430;6.806;2023-04-10T09:11:16;66552.97;;;10.41;72.66
46614;BME280;32338;50.430;6.806;2023-04-10T09:13:43;66560.66;;;10.46;74.37
46614;BME280;32338;50.430;6.806;2023-04-10T09:16:11;66566.69;;;10.56;80.02
46614;BME280;32338;50.430;6.806;2023-04-10T09:18:43;66550.16;;;10.38;75.94
46614;BME280;32338;50.430;6.806;2023-04-10T09:21:12;66552.22;;;10.38;72.02
46614;BME280;32338;50.430;6.806;2023-04-10T09:23:40;66566.50;;;10.53;70.97
46614;BME280;32338;50.430;6.806;2023-04-10T09:26:24;66580.97;;;10.64;75.04
46614;BME280;32338;50.430;6.806;2023-04-10T09:29:00;66611.22;;;10.97;74.50
46614;BME280;32338;50.430;6.806;2023-04-10T09:31:31;66637.31;;;11.16;74.82
46614;BME280;32338;50.430;6.806;2023-04-10T09:34:13;66661.75;;;11.41;69.59
46614;BME280;32338;50.430;6.806;2023-04-10T09:36:40;66658.34;;;11.38;67.17
46614;BME280;32338;50.430;6.806;2023-04-10T09:39:08;66673.59;;;11.59;72.41
46614;BME280;32338;50.430;6.806;2023-04-10T09:41:46;66683.75;;;11.61;67.57
46614;BME280;32338;50.430;6.806;2023-04-10T09:44:13;66691.44;;;11.65;67.10
46614;BME280;32338;50.430;6.806;2023-04-10T09:46:39;66695.97;;;11.70;68.32
46614;BME280;32338;50.430;6.806;2023-04-10T09:49:06;66701.22;;;11.70;68.40
46614;BME280;32338;50.430;6.806;2023-04-10T09:51:34;66696.69;;;11.73;65.86
46614;BME280;32338;50.430;6.806;2023-04-10T09:54:02;66705.00;;;11.85;69.92
46614;BME280;32338;50.430;6.806;2023-04-10T09:56:29;66709.88;;;11.87;66.32
46614;BME280;32338;50.430;6.806;2023-04-10T09:58:59;66737.53;;;12.12;66.65
46614;BME280;32338;50.430;6.806;2023-04-10T10:01:29;66753.53;;;12.29;67.30
46614;BME280;32338;50.430;6.806;2023-04-10T10:04:00;66757.28;;;12.30;70.56
46614;BME280;32338;50.430;6.806;2023-04-10T10:06:28;66739.22;;;12.14;63.12
46614;BME280;32338;50.430;6.806;2023-04-10T10:08:56;66735.84;;;12.11;64.98
46614;BME280;32338;50.430;6.806;2023-04-10T10:11:24;66758.41;;;12.31;65.13
46614;BME280;32338;50.430;6.806;2023-04-10T10:13:51;66752.78;;;12.26;67.78
46614;BME280;32338;50.430;6.806;2023-04-10T10:16:21;66762.38;;;12.35;64.93
46614;BME280;32338;50.430;6.806;2023-04-10T10:18:54;66751.09;;;12.25;61.80
46614;BME280;32338;50.430;6.806;2023-04-10T10:21:25;66757.28;;;12.30;64.57
46614;BME280;32338;50.430;6.806;2023-04-10T10:23:56;66764.44;;;12.35;60.45
46614;BME280;32338;50.430;6.806;2023-04-10T10:26:24;66751.09;;;12.25;61.62
46614;BME280;32338;50.430;6.806;2023-04-10T10:28:52;66742.25;;;12.19;60.89
46614;BME280;32338;50.430;6.806;2023-04-10T10:31:20;66749.94;;;12.24;61.53
46614;BME280;32338;50.430;6.806;2023-04-10T10:33:50;66740.56;;;12.18;58.67
46614;BME280;32338;50.430;6.806;2023-04-10T10:36:19;66766.13;;;12.36;62.49
46614;BME280;32338;50.430;6.806;2023-04-10T10:38:51;66779.47;;;12.46;58.64
46614;BME280;32338;50.430;6.806;2023-04-10T10:41:23;66793.78;;;12.61;58.21
46614;BME280;32338;50.430;6.806;2023-04-10T10:43:57;66814.84;;;12.83;58.17
46614;BME280;32338;50.430;6.806;2023-04-10T10:46:31;66825.03;;;12.92;59.26
46614;BME280;32338;50.430;6.806;2023-04-10T10:48:59;66823.31;;;12.91;60.75
46614;BME280;32338;50.430;6.806;2023-04-10T10:51:42;66830.66;;;12.97;56.61
46614;BME280;32338;50.430;6.806;2023-04-10T10:54:26;66832.94;;;13.00;54.82
46614;BME280;32338;50.430;6.806;2023-04-10T10:56:53;66844.22;;;13.10;56.91
46614;BME280;32338;50.430;6.806;2023-04-10T10:59:52;66852.84;;;13.13;53.02
46614;BME280;32338;50.430;6.806;2023-04-10T11:02:20;66858.91;;;13.23;54.80
46614;BME280;32338;50.430;6.806;2023-04-10T11:04:48;66854.19;;;13.17;56.30
46614;BME280;32338;50.430;6.806;2023-04-10T11:07:15;66848.91;;;13.09;53.12
46614;BME280;32338;50.430;6.806;2023-04-10T11:09:46;66846.28;;;13.09;51.41
46614;BME280;32338;50.430;6.806;2023-04-10T11:12:14;66837.44;;;13.04;52.69
46614;BME280;32338;50.430;6.806;2023-04-10T11:14:42;66848.16;;;13.13;49.36
46614;BME280;32338;50.430;6.806;2023-04-10T11:17:09;66876.59;;;13.35;52.13
46614;BME280;32338;50.430;6.806;2023-04-10T11:19:57;66878.50;;;13.39;48.54
46614;BME280;32338;50.430;6.806;2023-04-10T11:22:24;66854.75;;;13.17;47.71
46614;BME280;32338;50.430;6.806;2023-04-10T11:24:56;66861.16;;;13.25;49.61
46614;BME280;32338;50.430;6.806;2023-04-10T11:27:43;66850.03;;;13.10;48.19
46614;BME280;32338;50.430;6.806;2023-04-10T11:30:32;66848.34;;;13.16;47.97
46614;BME280;32338;50.430;6.806;2023-04-10T11:33:00;66857.75;;;13.22;48.18
46614;BME280;32338;50.430;6.806;2023-04-10T11:35:29;66860.97;;;13.23;48.29
46614;BME280;32338;50.430;6.806;2023-04-10T11:38:10;66880.00;;;13.38;49.56
46614;BME280;32338;50.430;6.806;2023-04-10T11:40:58;66875.66;;;13.36;47.24
46614;BME280;32338;50.430;6.806;2023-04-10T11:43:25;66867.00;;;13.26;49.55
46614;BME280;32338;50.430;6.806;2023-04-10T11:45:59;66846.84;;;13.10;47.00
46614;BME280;32338;50.430;6.806;2023-04-10T11:48:26;66858.31;;;13.23;48.73
46614;BME280;32338;50.430;6.806;2023-04-10T11:50:54;66866.78;;;13.30;49.61
46614;BME280;32338;50.430;6.806;2023-04-10T11:53:21;66887.91;;;13.45;49.17
46614;BME280;32338;50.430;6.806;2023-04-10T11:55:48;66902.78;;;13.61;48.47
46614;BME280;32338;50.430;6.806;2023-04-10T11:58:25;66905.03;;;13.63;49.18
46614;BME280;32338;50.430;6.806;2023-04-10T12:00:56;66909.75;;;13.70;48.29
46614;BME280;32338;50.430;6.806;2023-04-10T12:03:37;66901.25;;;13.62;47.55
46614;BME280;32338;50.430;6.806;2023-04-10T12:06:08;66875.31;;;13.38;47.72
46614;BME280;32338;50.430;6.806;2023-04-10T12:08:36;66879.44;;;13.37;49.53
46614;BME280;32338;50.430;6.806;2023-04-10T12:11:03;66902.59;;;13.58;49.16
46614;BME280;32338;50.430;6.806;2023-04-10T12:13:31;66895.44;;;13.54;48.33
46614;BME280;32338;50.430;6.806;2023-04-10T12:15:59;66907.47;;;13.68;50.52
46614;BME280;32338;50.430;6.806;2023-04-10T12:18:26;66905.41;;;13.61;49.21
46614;BME280;32338;50.430;6.806;2023-04-10T12:20:54;66874.50;;;13.35;47.73
46614;BME280;32338;50.430;6.806;2023-04-10T12:23:24;66884.91;;;13.47;51.10
46614;BME280;32338;50.430;6.806;2023-04-10T12:25:51;66882.06;;;13.44;48.51
46614;BME280;32338;50.430;6.806;2023-04-10T12:28:20;66891.09;;;13.53;48.55
46614;BME280;32338;50.430;6.806;2023-04-10T12:30:47;66897.31;;;13.58;48.81
46614;BME280;32338;50.430;6.806;2023-04-10T12:33:19;66909.75;;;13.70;48.30
46614;BME280;32338;50.430;6.806;2023-04-10T12:35:46;66938.94;;;13.94;48.15
46614;BME280;32338;50.430;6.806;2023-04-10T12:38:13;66940.81;;;13.98;49.24
46614;BME280;32338;50.430;6.806;2023-04-10T12:40:59;66961.16;;;14.17;49.25
46614;BME280;32338;50.430;6.806;2023-04-10T12:43:30;66992.63;;;14.43;47.68
46614;BME280;32338;50.430;6.806;2023-04-10T12:45:57;66956.28;;;14.15;47.19
46614;BME280;32338;50.430;6.806;2023-04-10T12:48:23;66934.97;;;13.90;46.78
46614;BME280;32338;50.430;6.806;2023-04-10T12:50:51;66934.78;;;13.88;47.17
46614;BME280;32338;50.430;6.806;2023-04-10T12:53:17;66939.50;;;13.94;47.36
46614;BME280;32338;50.430;6.806;2023-04-10T12:55:55;66943.25;;;14.03;49.39
46614;BME280;32338;50.430;6.806;2023-04-10T12:58:25;66984.69;;;14.36;51.56
46614;BME280;32338;50.430;6.806;2023-04-10T13:00:53;66994.88;;;14.45;48.72
46614;BME280;32338;50.430;6.806;2023-04-10T13:03:21;67019.41;;;14.70;49.48
46614;BME280;32338;50.430;6.806;2023-04-10T13:05:47;67058.78;;;15.03;48.79
46614;BME280;32338;50.430;6.806;2023-04-10T13:08:14;67044.47;;;14.88;47.10